sensor_id;sensor_type;location;lat;lon;timestamp;P1;durP1;ratioP1;P2;durP2;ratioP2
24663;SDS011;12791;50.992;13.788;2024-02-15T00:01:33;8.82;;;7.93;;
24663;SDS011;12791;50.992;13.788;2024-02-15T00:04:01;10.43;;;8.80;;
24663;SDS011;12791;50.992;13.788;2024-02-15T00:06:28;9.73;;;8.73;;
24663;SDS011;12791;50.992;13.788;2024-02-15T00:08:54;10.00;;;8.02;;
24663;SDS011;12791;50.992;13.788;2024-02-15T00:11:21;9.20;;;7.95;;
24663;SDS011;12791;50.992;13.788;2024-02-15T00:13:47;11.48;;;8.82;;
24663;SDS011;12791;50.992;13.788;2024-02-15T00:16:14;11.35;;;8.48;;
24663;SDS011;12791;50.992;13.788;2024-02-15T00:18:41;9.88;;;8.00;;
24663;SDS011;12791;50.992;13.788;2024-02-15T00:21:08;10.18;;;7.13;;
24663;SDS011;12791;50.992;13.788;2024-02-15T00:23:36;7.97;;;6.55;;
24663;SDS011;12791;50.992;13.788;2024-02-15T00:26:02;7.35;;;6.32;;
24663;SDS011;12791;50.992;13.788;2024-02-15T00:28:29;8.25;;;6.82;;
24663;SDS011;12791;50.992;13.788;2024-02-15T00:30:56;8.65;;;7.82;;
24663;SDS011;12791;50.992;13.788;2024-02-15T00:33:22;9.63;;;7.75;;
24663;SDS011;12791;50.992;13.788;2024-02-15T00:35:49;9.60;;;8.02;;
24663;SDS011;12791;50.992;13.788;2024-02-15T00:38:18;9.77;;;7.82;;
24663;SDS011;12791;50.992;13.788;2024-02-15T00:40:45;8.35;;;7.53;;
24663;SDS011;12791;50.992;13.788;2024-02-15T00:43:11;8.85;;;7.25;;
24663;SDS011;12791;50.992;13.788;2024-02-15T00:45:39;8.02;;;7.03;;
24663;SDS011;12791;50.992;13.788;2024-02-15T00:48:06;8.18;;;6.97;;
24663;SDS011;12791;50.992;13.788;2024-02-15T00:50:33;8.38;;;7.30;;
24663;SDS011;12791;50.992;13.788;2024-02-15T00:52:59;7.78;;;6.70;;
24663;SDS011;12791;50.992;13.788;2024-02-15T00:55:27;9.63;;;8.23;;
24663;SDS011;12791;50.992;13.788;2024-02-15T00:57:54;7.90;;;7.13;;
24663;SDS011;12791;50.992;13.788;2024-02-15T01:00:20;8.57;;;7.32;;
24663;SDS011;12791;50.992;13.788;2024-02-15T01:02:47;10.73;;;7.78;;
24663;SDS011;12791;50.992;13.788;2024-02-15T01:05:14;9.65;;;7.85;;
24663;SDS011;12791;50.992;13.788;2024-02-15T01:07:41;8.40;;;7.50;;
24663;SDS011;12791;50.992;13.788;2024-02-15T01:10:08;9.15;;;7.50;;
24663;SDS011;12791;50.992;13.788;2024-02-15T01:12:36;8.32;;;7.47;;
24663;SDS011;12791;50.992;13.788;2024-02-15T01:15:03;10.05;;;7.43;;
24663;SDS011;12791;50.992;13.788;2024-02-15T01:17:30;7.35;;;6.63;;
24663;SDS011;12791;50.992;13.788;2024-02-15T01:19:56;9.63;;;7.95;;
24663;SDS011;12791;50.992;13.788;2024-02-15T01:22:23;8.45;;;7.18;;
24663;SDS011;12791;50.992;13.788;2024-02-15T01:24:52;9.18;;;8.27;;
24663;SDS011;12791;50.992;13.788;2024-02-15T01:27:18;9.65;;;8.65;;
24663;SDS011;12791;50.992;13.788;2024-02-15T01:29:47;10.57;;;9.48;;
24663;SDS011;12791;50.992;13.788;2024-02-15T01:32:14;13.15;;;9.10;;
24663;SDS011;12791;50.992;13.788;2024-02-15T01:34:41;11.40;;;9.38;;
24663;SDS011;12791;50.992;13.788;2024-02-15T01:37:07;10.82;;;9.18;;
24663;SDS011;12791;50.992;13.788;2024-02-15T01:39:34;12.65;;;10.00;;
24663;SDS011;12791;50.992;13.788;2024-02-15T01:42:00;10.95;;;9.60;;
24663;SDS011;12791;50.992;13.788;2024-02-15T01:44:28;13.75;;;10.20;;
24663;SDS011;12791;50.992;13.788;2024-02-15T01:46:55;12.18;;;10.00;;
24663;SDS011;12791;50.992;13.788;2024-02-15T01:49:23;12.00;;;9.93;;
24663;SDS011;12791;50.992;13.788;2024-02-15T01:51:52;11.75;;;10.02;;
24663;SDS011;12791;50.992;13.788;2024-02-15T01:54:22;12.55;;;10.45;;
24663;SDS011;12791;50.992;13.788;2024-02-15T01:56:49;13.10;;;10.40;;
24663;SDS011;12791;50.992;13.788;2024-02-15T01:59:16;12.85;;;10.20;;
24663;SDS011;12791;50.992;13.788;2024-02-15T02:01:43;12.15;;;9.93;;
24663;SDS011;12791;50.992;13.788;2024-02-15T02:04:12;13.90;;;11.10;;
24663;SDS011;12791;50.992;13.788;2024-02-15T02:06:39;14.02;;;11.65;;
24663;SDS011;12791;50.992;13.788;2024-02-15T02:09:06;15.02;;;11.95;;
24663;SDS011;12791;50.992;13.788;2024-02-15T02:11:35;18.40;;;13.63;;
24663;SDS011;12791;50.992;13.788;2024-02-15T02:14:01;16.00;;;12.93;;
24663;SDS011;12791;50.992;13.788;2024-02-15T02:16:29;15.30;;;12.45;;
24663;SDS011;12791;50.992;13.788;2024-02-15T02:18:57;18.27;;;14.63;;
24663;SDS011;12791;50.992;13.788;2024-02-15T02:21:26;16.27;;;13.43;;
24663;SDS011;12791;50.992;13.788;2024-02-15T02:23:55;14.50;;;12.65;;
24663;SDS011;12791;50.992;13.788;2024-02-15T02:26:24;17.15;;;14.40;;
24663;SDS011;12791;50.992;13.788;2024-02-15T02:28:51;16.23;;;12.90;;
24663;SDS011;12791;50.992;13.788;2024-02-15T02:31:19;19.73;;;13.93;;
24663;SDS011;12791;50.992;13.788;2024-02-15T02:33:47;19.08;;;13.95;;
24663;SDS011;12791;50.992;13.788;2024-02-15T02:36:16;17.20;;;12.85;;
24663;SDS011;12791;50.992;13.788;2024-02-15T02:38:43;18.13;;;14.05;;
24663;SDS011;12791;50.992;13.788;2024-02-15T02:41:10;16.70;;;14.10;;
24663;SDS011;12791;50.992;13.788;2024-02-15T02:43:38;16.58;;;13.68;;
24663;SDS011;12791;50.992;13.788;2024-02-15T02:46:05;18.20;;;14.00;;
24663;SDS011;12791;50.992;13.788;2024-02-15T02:48:32;14.85;;;13.25;;
24663;SDS011;12791;50.992;13.788;2024-02-15T02:50:58;15.48;;;13.80;;
24663;SDS011;12791;50.992;13.788;2024-02-15T02:53:25;15.18;;;12.75;;
24663;SDS011;12791;50.992;13.788;2024-02-15T02:55:52;16.88;;;14.05;;
24663;SDS011;12791;50.992;13.788;2024-02-15T02:58:18;17.30;;;14.20;;
24663;SDS011;12791;50.992;13.788;2024-02-15T03:00:46;14.35;;;12.55;;
24663;SDS011;12791;50.992;13.788;2024-02-15T03:03:13;16.95;;;13.98;;
24663;SDS011;12791;50.992;13.788;2024-02-15T03:05:39;16.70;;;14.00;;
24663;SDS011;12791;50.992;13.788;2024-02-15T03:08:06;15.10;;;12.23;;
24663;SDS011;12791;50.992;13.788;2024-02-15T03:10:34;17.08;;;12.38;;
24663;SDS011;12791;50.992;13.788;2024-02-15T03:13:01;18.85;;;13.40;;
24663;SDS011;12791;50.992;13.788;2024-02-15T03:15:30;15.07;;;13.13;;
24663;SDS011;12791;50.992;13.788;2024-02-15T03:17:59;13.10;;;11.65;;
24663;SDS011;12791;50.992;13.788;2024-02-15T03:20:31;15.38;;;12.52;;
24663;SDS011;12791;50.992;13.788;2024-02-15T03:22:59;16.13;;;12.73;;
24663;SDS011;12791;50.992;13.788;2024-02-15T03:25:27;13.75;;;12.15;;
24663;SDS011;12791;50.992;13.788;2024-02-15T03:27:55;12.77;;;11.10;;
24663;SDS011;12791;50.992;13.788;2024-02-15T03:30:24;14.52;;;12.15;;
24663;SDS011;12791;50.992;13.788;2024-02-15T03:32:51;14.38;;;10.95;;
24663;SDS011;12791;50.992;13.788;2024-02-15T03:35:20;12.38;;;10.63;;
24663;SDS011;12791;50.992;13.788;2024-02-15T03:37:47;13.43;;;11.25;;
24663;SDS011;12791;50.992;13.788;2024-02-15T03:40:16;13.50;;;11.70;;
24663;SDS011;12791;50.992;13.788;2024-02-15T03:42:43;13.48;;;12.07;;
24663;SDS011;12791;50.992;13.788;2024-02-15T03:45:09;13.38;;;11.68;;
24663;SDS011;12791;50.992;13.788;2024-02-15T03:47:36;13.77;;;11.02;;
24663;SDS011;12791;50.992;13.788;2024-02-15T03:50:04;11.80;;;10.43;;
24663;SDS011;12791;50.992;13.788;2024-02-15T03:52:32;15.73;;;11.98;;
24663;SDS011;12791;50.992;13.788;2024-02-15T03:55:00;14.15;;;11.65;;
24663;SDS011;12791;50.992;13.788;2024-02-15T03:57:27;14.40;;;11.90;;
24663;SDS011;12791;50.992;13.788;2024-02-15T03:59:54;14.32;;;10.80;;
24663;SDS011;12791;50.992;13.788;2024-02-15T04:02:22;11.85;;;10.38;;
24663;SDS011;12791;50.992;13.788;2024-02-15T04:04:51;15.05;;;12.05;;
24663;SDS011;12791;50.992;13.788;2024-02-15T04:07:20;15.05;;;11.80;;
24663;SDS011;12791;50.992;13.788;2024-02-15T04:09:48;11.82;;;10.60;;
24663;SDS011;12791;50.992;13.788;2024-02-15T04:12:15;14.50;;;12.38;;
24663;SDS011;12791;50.992;13.788;2024-02-15T04:14:42;13.75;;;11.05;;
24663;SDS011;12791;50.992;13.788;2024-02-15T04:17:10;13.57;;;11.15;;
24663;SDS011;12791;50.992;13.788;2024-02-15T04:19:39;12.82;;;11.27;;
24663;SDS011;12791;50.992;13.788;2024-02-15T04:22:05;16.00;;;13.48;;
24663;SDS011;12791;50.992;13.788;2024-02-15T04:24:33;13.38;;;11.98;;
24663;SDS011;12791;50.992;13.788;2024-02-15T04:27:01;15.48;;;12.30;;
24663;SDS011;12791;50.992;13.788;2024-02-15T04:29:27;15.25;;;11.25;;
24663;SDS011;12791;50.992;13.788;2024-02-15T04:31:54;14.40;;;11.52;;
24663;SDS011;12791;50.992;13.788;2024-02-15T04:34:21;13.63;;;12.02;;
24663;SDS011;12791;50.992;13.788;2024-02-15T04:36:48;16.80;;;13.23;;
24663;SDS011;12791;50.992;13.788;2024-02-15T04:39:15;14.05;;;12.55;;
24663;SDS011;12791;50.992;13.788;2024-02-15T04:44:17;15.55;;;13.25;;
24663;SDS011;12791;50.992;13.788;2024-02-15T04:46:45;14.82;;;12.20;;
24663;SDS011;12791;50.992;13.788;2024-02-15T04:49:12;15.30;;;12.70;;
24663;SDS011;12791;50.992;13.788;2024-02-15T04:51:39;15.18;;;12.93;;
24663;SDS011;12791;50.992;13.788;2024-02-15T04:54:06;15.35;;;12.93;;
24663;SDS011;12791;50.992;13.788;2024-02-15T04:56:33;14.73;;;13.18;;
24663;SDS011;12791;50.992;13.788;2024-02-15T04:59:01;16.33;;;12.45;;
24663;SDS011;12791;50.992;13.788;2024-02-15T05:01:29;14.48;;;12.75;;
24663;SDS011;12791;50.992;13.788;2024-02-15T05:03:58;15.57;;;12.75;;
24663;SDS011;12791;50.992;13.788;2024-02-15T05:06:24;14.30;;;12.18;;
24663;SDS011;12791;50.992;13.788;2024-02-15T05:08:54;16.95;;;12.93;;
24663;SDS011;12791;50.992;13.788;2024-02-15T05:11:22;17.38;;;13.68;;
24663;SDS011;12791;50.992;13.788;2024-02-15T05:13:49;16.20;;;12.48;;
24663;SDS011;12791;50.992;13.788;2024-02-15T05:16:16;17.77;;;13.60;;
24663;SDS011;12791;50.992;13.788;2024-02-15T05:18:44;14.48;;;11.32;;
24663;SDS011;12791;50.992;13.788;2024-02-15T05:21:11;13.85;;;12.23;;
24663;SDS011;12791;50.992;13.788;2024-02-15T05:23:38;14.95;;;13.20;;
24663;SDS011;12791;50.992;13.788;2024-02-15T05:26:06;16.85;;;13.95;;
24663;SDS011;12791;50.992;13.788;2024-02-15T05:28:34;18.45;;;13.70;;
24663;SDS011;12791;50.992;13.788;2024-02-15T05:31:11;17.33;;;14.43;;
24663;SDS011;12791;50.992;13.788;2024-02-15T05:33:39;15.63;;;12.73;;
24663;SDS011;12791;50.992;13.788;2024-02-15T05:36:10;16.63;;;13.35;;
24663;SDS011;12791;50.992;13.788;2024-02-15T05:38:37;18.30;;;13.90;;
24663;SDS011;12791;50.992;13.788;2024-02-15T05:41:04;18.15;;;14.63;;
24663;SDS011;12791;50.992;13.788;2024-02-15T05:43:32;21.58;;;14.88;;
24663;SDS011;12791;50.992;13.788;2024-02-15T05:46:00;16.20;;;13.70;;
24663;SDS011;12791;50.992;13.788;2024-02-15T05:48:26;15.90;;;12.60;;
24663;SDS011;12791;50.992;13.788;2024-02-15T05:50:54;16.55;;;14.00;;
24663;SDS011;12791;50.992;13.788;2024-02-15T05:53:23;17.00;;;13.52;;
24663;SDS011;12791;50.992;13.788;2024-02-15T05:55:50;16.40;;;13.82;;
24663;SDS011;12791;50.992;13.788;2024-02-15T05:58:17;17.75;;;14.70;;
24663;SDS011;12791;50.992;13.788;2024-02-15T06:00:43;18.42;;;14.45;;
24663;SDS011;12791;50.992;13.788;2024-02-15T06:03:14;20.25;;;15.50;;
24663;SDS011;12791;50.992;13.788;2024-02-15T06:05:41;18.45;;;14.95;;
24663;SDS011;12791;50.992;13.788;2024-02-15T06:08:09;19.80;;;14.10;;
24663;SDS011;12791;50.992;13.788;2024-02-15T06:10:38;20.73;;;15.05;;
24663;SDS011;12791;50.992;13.788;2024-02-15T06:13:05;18.40;;;15.07;;
24663;SDS011;12791;50.992;13.788;2024-02-15T06:15:33;17.30;;;13.60;;
24663;SDS011;12791;50.992;13.788;2024-02-15T06:18:00;18.08;;;15.23;;
24663;SDS011;12791;50.992;13.788;2024-02-15T06:20:28;18.88;;;14.68;;
24663;SDS011;12791;50.992;13.788;2024-02-15T06:22:56;19.83;;;16.83;;
24663;SDS011;12791;50.992;13.788;2024-02-15T06:25:23;20.05;;;15.63;;
24663;SDS011;12791;50.992;13.788;2024-02-15T06:27:51;20.20;;;16.25;;
24663;SDS011;12791;50.992;13.788;2024-02-15T06:30:23;17.52;;;14.65;;
24663;SDS011;12791;50.992;13.788;2024-02-15T06:33:07;21.15;;;16.20;;
24663;SDS011;12791;50.992;13.788;2024-02-15T06:36:03;20.35;;;16.13;;
24663;SDS011;12791;50.992;13.788;2024-02-15T06:38:48;22.52;;;16.65;;
24663;SDS011;12791;50.992;13.788;2024-02-15T06:41:32;19.75;;;15.38;;
24663;SDS011;12791;50.992;13.788;2024-02-15T06:44:00;20.73;;;16.60;;
24663;SDS011;12791;50.992;13.788;2024-02-15T06:46:27;17.00;;;14.07;;
24663;SDS011;12791;50.992;13.788;2024-02-15T06:48:54;19.35;;;16.20;;
24663;SDS011;12791;50.992;13.788;2024-02-15T06:51:20;19.83;;;15.85;;
24663;SDS011;12791;50.992;13.788;2024-02-15T06:53:49;23.55;;;17.30;;
24663;SDS011;12791;50.992;13.788;2024-02-15T06:56:16;24.35;;;17.73;;
24663;SDS011;12791;50.992;13.788;2024-02-15T06:58:45;25.73;;;18.48;;
24663;SDS011;12791;50.992;13.788;2024-02-15T07:01:14;21.90;;;16.90;;
24663;SDS011;12791;50.992;13.788;2024-02-15T07:03:42;22.73;;;17.40;;
24663;SDS011;12791;50.992;13.788;2024-02-15T07:06:10;25.65;;;17.85;;
24663;SDS011;12791;50.992;13.788;2024-02-15T07:08:38;25.63;;;17.58;;
24663;SDS011;12791;50.992;13.788;2024-02-15T07:11:06;25.05;;;17.20;;
24663;SDS011;12791;50.992;13.788;2024-02-15T07:13:34;21.15;;;15.95;;
24663;SDS011;12791;50.992;13.788;2024-02-15T07:16:01;20.25;;;15.95;;
24663;SDS011;12791;50.992;13.788;2024-02-15T07:18:30;20.48;;;15.52;;
24663;SDS011;12791;50.992;13.788;2024-02-15T07:20:56;24.02;;;17.17;;
24663;SDS011;12791;50.992;13.788;2024-02-15T07:23:24;19.35;;;15.45;;
24663;SDS011;12791;50.992;13.788;2024-02-15T07:25:51;21.25;;;16.08;;
24663;SDS011;12791;50.992;13.788;2024-02-15T07:28:18;19.50;;;15.70;;
24663;SDS011;12791;50.992;13.788;2024-02-15T07:30:45;21.80;;;17.55;;
24663;SDS011;12791;50.992;13.788;2024-02-15T07:33:13;21.05;;;16.52;;
24663;SDS011;12791;50.992;13.788;2024-02-15T07:35:44;24.33;;;17.98;;
24663;SDS011;12791;50.992;13.788;2024-02-15T07:38:10;18.48;;;16.48;;
24663;SDS011;12791;50.992;13.788;2024-02-15T07:40:37;22.13;;;16.80;;
24663;SDS011;12791;50.992;13.788;2024-02-15T07:43:05;19.00;;;16.33;;
24663;SDS011;12791;50.992;13.788;2024-02-15T07:45:32;22.23;;;17.33;;
24663;SDS011;12791;50.992;13.788;2024-02-15T07:48:02;25.77;;;18.70;;
24663;SDS011;12791;50.992;13.788;2024-02-15T07:50:30;24.45;;;19.40;;
24663;SDS011;12791;50.992;13.788;2024-02-15T07:52:58;24.48;;;17.90;;
24663;SDS011;12791;50.992;13.788;2024-02-15T07:55:24;23.17;;;17.95;;
24663;SDS011;12791;50.992;13.788;2024-02-15T07:57:51;25.17;;;18.05;;
24663;SDS011;12791;50.992;13.788;2024-02-15T08:00:18;20.25;;;17.15;;
24663;SDS011;12791;50.992;13.788;2024-02-15T08:02:45;20.38;;;17.23;;
24663;SDS011;12791;50.992;13.788;2024-02-15T08:05:12;24.75;;;18.95;;
24663;SDS011;12791;50.992;13.788;2024-02-15T08:07:41;24.58;;;19.95;;
24663;SDS011;12791;50.992;13.788;2024-02-15T08:10:10;23.08;;;18.52;;
24663;SDS011;12791;50.992;13.788;2024-02-15T08:12:39;23.73;;;18.83;;
24663;SDS011;12791;50.992;13.788;2024-02-15T08:15:07;24.10;;;18.88;;
24663;SDS011;12791;50.992;13.788;2024-02-15T08:17:37;21.80;;;18.05;;
24663;SDS011;12791;50.992;13.788;2024-02-15T08:20:05;26.17;;;18.75;;
24663;SDS011;12791;50.992;13.788;2024-02-15T08:22:33;23.80;;;18.15;;
24663;SDS011;12791;50.992;13.788;2024-02-15T08:25:00;18.45;;;15.80;;
24663;SDS011;12791;50.992;13.788;2024-02-15T08:27:29;23.80;;;18.17;;
24663;SDS011;12791;50.992;13.788;2024-02-15T08:29:57;21.55;;;17.83;;
24663;SDS011;12791;50.992;13.788;2024-02-15T08:32:24;21.52;;;17.05;;
24663;SDS011;12791;50.992;13.788;2024-02-15T08:34:50;21.20;;;17.67;;
24663;SDS011;12791;50.992;13.788;2024-02-15T08:37:17;28.83;;;20.25;;
24663;SDS011;12791;50.992;13.788;2024-02-15T08:39:44;21.90;;;18.35;;
24663;SDS011;12791;50.992;13.788;2024-02-15T08:42:11;22.10;;;18.10;;
24663;SDS011;12791;50.992;13.788;2024-02-15T08:44:39;18.77;;;15.80;;
24663;SDS011;12791;50.992;13.788;2024-02-15T08:47:05;20.02;;;16.65;;
24663;SDS011;12791;50.992;13.788;2024-02-15T08:49:32;20.75;;;17.65;;
24663;SDS011;12791;50.992;13.788;2024-02-15T08:51:59;22.98;;;18.67;;
24663;SDS011;12791;50.992;13.788;2024-02-15T08:54:25;18.90;;;15.80;;
24663;SDS011;12791;50.992;13.788;2024-02-15T08:56:52;24.40;;;18.80;;
24663;SDS011;12791;50.992;13.788;2024-02-15T08:59:18;23.13;;;18.33;;
24663;SDS011;12791;50.992;13.788;2024-02-15T09:01:46;25.70;;;18.00;;
24663;SDS011;12791;50.992;13.788;2024-02-15T09:04:13;23.05;;;17.85;;
24663;SDS011;12791;50.992;13.788;2024-02-15T09:06:39;22.40;;;16.92;;
24663;SDS011;12791;50.992;13.788;2024-02-15T09:09:08;21.63;;;16.33;;
24663;SDS011;12791;50.992;13.788;2024-02-15T09:11:34;19.77;;;16.67;;
24663;SDS011;12791;50.992;13.788;2024-02-15T09:14:01;20.33;;;16.70;;
24663;SDS011;12791;50.992;13.788;2024-02-15T09:16:27;20.58;;;16.67;;
24663;SDS011;12791;50.992;13.788;2024-02-15T09:18:57;20.25;;;15.75;;
24663;SDS011;12791;50.992;13.788;2024-02-15T09:21:25;20.02;;;15.93;;
24663;SDS011;12791;50.992;13.788;2024-02-15T09:23:53;19.60;;;16.05;;
24663;SDS011;12791;50.992;13.788;2024-02-15T09:26:20;19.73;;;15.43;;
24663;SDS011;12791;50.992;13.788;2024-02-15T09:28:47;21.20;;;16.90;;
24663;SDS011;12791;50.992;13.788;2024-02-15T09:31:13;19.00;;;15.52;;
24663;SDS011;12791;50.992;13.788;2024-02-15T09:33:40;18.67;;;15.25;;
24663;SDS011;12791;50.992;13.788;2024-02-15T09:36:08;18.30;;;15.02;;
24663;SDS011;12791;50.992;13.788;2024-02-15T09:38:37;22.10;;;16.30;;
24663;SDS011;12791;50.992;13.788;2024-02-15T09:41:03;19.38;;;15.98;;
24663;SDS011;12791;50.992;13.788;2024-02-15T09:43:32;20.05;;;15.60;;
24663;SDS011;12791;50.992;13.788;2024-02-15T09:45:59;21.55;;;15.77;;
24663;SDS011;12791;50.992;13.788;2024-02-15T09:48:29;19.75;;;15.82;;
24663;SDS011;12791;50.992;13.788;2024-02-15T09:50:58;20.63;;;16.38;;
24663;SDS011;12791;50.992;13.788;2024-02-15T09:53:27;18.52;;;14.93;;
24663;SDS011;12791;50.992;13.788;2024-02-15T09:55:54;19.83;;;14.82;;
24663;SDS011;12791;50.992;13.788;2024-02-15T09:58:29;16.75;;;14.13;;
24663;SDS011;12791;50.992;13.788;2024-02-15T10:00:58;17.33;;;13.50;;
24663;SDS011;12791;50.992;13.788;2024-02-15T10:03:28;16.45;;;13.10;;
24663;SDS011;12791;50.992;13.788;2024-02-15T10:05:56;15.38;;;12.35;;
24663;SDS011;12791;50.992;13.788;2024-02-15T10:08:23;14.48;;;12.30;;
24663;SDS011;12791;50.992;13.788;2024-02-15T10:10:58;15.70;;;12.95;;
24663;SDS011;12791;50.992;13.788;2024-02-15T10:13:31;15.77;;;11.80;;
24663;SDS011;12791;50.992;13.788;2024-02-15T10:15:58;14.65;;;12.40;;
24663;SDS011;12791;50.992;13.788;2024-02-15T10:18:25;18.50;;;12.73;;
24663;SDS011;12791;50.992;13.788;2024-02-15T10:20:57;18.58;;;13.60;;
24663;SDS011;12791;50.992;13.788;2024-02-15T10:23:24;18.10;;;14.35;;
24663;SDS011;12791;50.992;13.788;2024-02-15T10:25:51;22.95;;;17.05;;
24663;SDS011;12791;50.992;13.788;2024-02-15T10:28:22;31.65;;;22.92;;
24663;SDS011;12791;50.992;13.788;2024-02-15T10:30:49;25.88;;;19.77;;
24663;SDS011;12791;50.992;13.788;2024-02-15T10:33:18;28.50;;;19.92;;
24663;SDS011;12791;50.992;13.788;2024-02-15T10:35:46;25.25;;;20.13;;
24663;SDS011;12791;50.992;13.788;2024-02-15T10:38:12;24.33;;;19.08;;
24663;SDS011;12791;50.992;13.788;2024-02-15T10:40:40;24.05;;;18.70;;
24663;SDS011;12791;50.992;13.788;2024-02-15T10:43:08;22.73;;;17.17;;
24663;SDS011;12791;50.992;13.788;2024-02-15T10:45:39;21.13;;;16.75;;
24663;SDS011;12791;50.992;13.788;2024-02-15T10:48:07;20.67;;;15.77;;
24663;SDS011;12791;50.992;13.788;2024-02-15T10:50:33;22.23;;;17.27;;
24663;SDS011;12791;50.992;13.788;2024-02-15T10:53:01;23.27;;;17.10;;
24663;SDS011;12791;50.992;13.788;2024-02-15T10:55:38;21.38;;;15.30;;
24663;SDS011;12791;50.992;13.788;2024-02-15T10:58:06;18.90;;;14.68;;
24663;SDS011;12791;50.992;13.788;2024-02-15T11:00:34;23.73;;;16.55;;
24663;SDS011;12791;50.992;13.788;2024-02-15T11:03:04;21.63;;;15.88;;
24663;SDS011;12791;50.992;13.788;2024-02-15T11:05:33;22.33;;;16.15;;
24663;SDS011;12791;50.992;13.788;2024-02-15T11:08:01;17.75;;;14.02;;
24663;SDS011;12791;50.992;13.788;2024-02-15T11:10:29;13.38;;;10.40;;
24663;SDS011;12791;50.992;13.788;2024-02-15T11:12:56;11.57;;;9.45;;
24663;SDS011;12791;50.992;13.788;2024-02-15T11:15:45;7.03;;;5.38;;
24663;SDS011;12791;50.992;13.788;2024-02-15T11:21:14;1.95;;;1.85;;
24663;SDS011;12791;50.992;13.788;2024-02-15T11:23:41;1.40;;;1.30;;
24663;SDS011;12791;50.992;13.788;2024-02-15T11:26:14;4.43;;;1.00;;
24663;SDS011;12791;50.992;13.788;2024-02-15T11:29:10;1.25;;;1.00;;
24663;SDS011;12791;50.992;13.788;2024-02-15T11:31:57;1.10;;;0.70;;
24663;SDS011;12791;50.992;13.788;2024-02-15T11:34:43;0.95;;;0.60;;
24663;SDS011;12791;50.992;13.788;2024-02-15T11:40:17;0.70;;;0.70;;
24663;SDS011;12791;50.992;13.788;2024-02-15T11:42:45;0.60;;;0.60;;
24663;SDS011;12791;50.992;13.788;2024-02-15T11:45:14;0.77;;;0.77;;
24663;SDS011;12791;50.992;13.788;2024-02-15T11:47:46;1.95;;;0.80;;
24663;SDS011;12791;50.992;13.788;2024-02-15T11:50:17;2.08;;;0.80;;
24663;SDS011;12791;50.992;13.788;2024-02-15T11:52:45;0.70;;;0.70;;
24663;SDS011;12791;50.992;13.788;2024-02-15T11:55:14;2.47;;;0.90;;
24663;SDS011;12791;50.992;13.788;2024-02-15T11:57:44;0.80;;;0.80;;
24663;SDS011;12791;50.992;13.788;2024-02-15T12:00:26;0.63;;;0.63;;
24663;SDS011;12791;50.992;13.788;2024-02-15T12:03:10;0.60;;;0.60;;
24663;SDS011;12791;50.992;13.788;2024-02-15T12:05:58;1.48;;;0.98;;
24663;SDS011;12791;50.992;13.788;2024-02-15T12:08:45;0.70;;;0.70;;
24663;SDS011;12791;50.992;13.788;2024-02-15T12:11:44;0.70;;;0.70;;
24663;SDS011;12791;50.992;13.788;2024-02-15T12:14:28;0.60;;;0.60;;
24663;SDS011;12791;50.992;13.788;2024-02-15T12:17:12;0.70;;;0.70;;
24663;SDS011;12791;50.992;13.788;2024-02-15T12:19:59;1.02;;;0.90;;
24663;SDS011;12791;50.992;13.788;2024-02-15T12:22:33;0.98;;;0.60;;
24663;SDS011;12791;50.992;13.788;2024-02-15T12:25:06;1.20;;;0.80;;
24663;SDS011;12791;50.992;13.788;2024-02-15T12:27:36;0.70;;;0.70;;
24663;SDS011;12791;50.992;13.788;2024-02-15T12:30:04;1.67;;;0.77;;
24663;SDS011;12791;50.992;13.788;2024-02-15T12:32:33;0.77;;;0.77;;
24663;SDS011;12791;50.992;13.788;2024-02-15T12:35:09;0.82;;;0.70;;
24663;SDS011;12791;50.992;13.788;2024-02-15T12:37:39;0.70;;;0.70;;
24663;SDS011;12791;50.992;13.788;2024-02-15T12:40:10;1.30;;;0.70;;
24663;SDS011;12791;50.992;13.788;2024-02-15T12:42:40;0.50;;;0.50;;
24663;SDS011;12791;50.992;13.788;2024-02-15T12:45:07;0.75;;;0.70;;
24663;SDS011;12791;50.992;13.788;2024-02-15T12:47:43;0.60;;;0.60;;
24663;SDS011;12791;50.992;13.788;2024-02-15T12:50:14;0.47;;;0.47;;
24663;SDS011;12791;50.992;13.788;2024-02-15T12:52:44;0.50;;;0.50;;
24663;SDS011;12791;50.992;13.788;2024-02-15T12:55:13;0.40;;;0.40;;
24663;SDS011;12791;50.992;13.788;2024-02-15T12:57:41;0.40;;;0.40;;
24663;SDS011;12791;50.992;13.788;2024-02-15T13:00:10;0.50;;;0.50;;
24663;SDS011;12791;50.992;13.788;2024-02-15T13:02:42;0.57;;;0.57;;
24663;SDS011;12791;50.992;13.788;2024-02-15T13:05:10;0.50;;;0.50;;
24663;SDS011;12791;50.992;13.788;2024-02-15T13:07:36;2.95;;;0.60;;
24663;SDS011;12791;50.992;13.788;2024-02-15T13:10:05;0.40;;;0.40;;
24663;SDS011;12791;50.992;13.788;2024-02-15T13:12:33;0.40;;;0.40;;
24663;SDS011;12791;50.992;13.788;2024-02-15T13:15:00;0.50;;;0.50;;
24663;SDS011;12791;50.992;13.788;2024-02-15T13:17:28;0.43;;;0.43;;
24663;SDS011;12791;50.992;13.788;2024-02-15T13:19:55;0.60;;;0.55;;
24663;SDS011;12791;50.992;13.788;2024-02-15T13:22:29;0.50;;;0.50;;
24663;SDS011;12791;50.992;13.788;2024-02-15T13:24:56;1.42;;;0.50;;
24663;SDS011;12791;50.992;13.788;2024-02-15T13:27:25;0.50;;;0.50;;
24663;SDS011;12791;50.992;13.788;2024-02-15T13:29:52;0.60;;;0.60;;
24663;SDS011;12791;50.992;13.788;2024-02-15T13:32:20;0.63;;;0.50;;
24663;SDS011;12791;50.992;13.788;2024-02-15T13:34:48;0.57;;;0.50;;
24663;SDS011;12791;50.992;13.788;2024-02-15T13:37:17;0.57;;;0.57;;
24663;SDS011;12791;50.992;13.788;2024-02-15T13:39:46;0.40;;;0.40;;
24663;SDS011;12791;50.992;13.788;2024-02-15T13:42:15;0.55;;;0.50;;
24663;SDS011;12791;50.992;13.788;2024-02-15T13:44:45;0.55;;;0.45;;
24663;SDS011;12791;50.992;13.788;2024-02-15T13:47:12;0.40;;;0.40;;
24663;SDS011;12791;50.992;13.788;2024-02-15T13:49:38;0.40;;;0.40;;
24663;SDS011;12791;50.992;13.788;2024-02-15T13:52:06;0.57;;;0.30;;
24663;SDS011;12791;50.992;13.788;2024-02-15T13:54:33;0.30;;;0.30;;
24663;SDS011;12791;50.992;13.788;2024-02-15T13:57:00;0.32;;;0.32;;
24663;SDS011;12791;50.992;13.788;2024-02-15T13:59:27;0.30;;;0.30;;
24663;SDS011;12791;50.992;13.788;2024-02-15T14:01:56;0.20;;;0.20;;
24663;SDS011;12791;50.992;13.788;2024-02-15T14:04:23;0.30;;;0.30;;
24663;SDS011;12791;50.992;13.788;2024-02-15T14:06:51;0.30;;;0.30;;
24663;SDS011;12791;50.992;13.788;2024-02-15T14:09:21;0.20;;;0.20;;
24663;SDS011;12791;50.992;13.788;2024-02-15T14:11:51;0.30;;;0.30;;
24663;SDS011;12791;50.992;13.788;2024-02-15T14:14:18;0.40;;;0.30;;
24663;SDS011;12791;50.992;13.788;2024-02-15T14:16:45;0.35;;;0.35;;
24663;SDS011;12791;50.992;13.788;2024-02-15T14:19:14;0.40;;;0.40;;
24663;SDS011;12791;50.992;13.788;2024-02-15T14:21:42;0.30;;;0.30;;
24663;SDS011;12791;50.992;13.788;2024-02-15T14:24:10;0.30;;;0.30;;
24663;SDS011;12791;50.992;13.788;2024-02-15T14:26:38;0.38;;;0.38;;
24663;SDS011;12791;50.992;13.788;2024-02-15T14:29:05;0.50;;;0.50;;
24663;SDS011;12791;50.992;13.788;2024-02-15T14:31:32;0.60;;;0.50;;
24663;SDS011;12791;50.992;13.788;2024-02-15T14:34:32;3.50;;;2.75;;